Time;durP1;ratioP1;P1;durP2;ratioP2;P2;SDS_P1;SDS_P2;PMS_P1;PMS_P2;Temp;Humidity;BMP_temperature;BMP_pressure;BME280_temperature;BME280_humidity;BME280_pressure;Samples;Min_cycle;Max_cycle;Signal;HPM_P1;HPM_P2
2024/02/21 00:00:48;;;;;;;6.13;2.65;;;9.80;99.90;;;;;;5041653;28;20408;-72
2024/02/21 00:03:14;;;;;;;14.57;3.47;;;9.80;99.90;;;;;;5041016;28;20032;-72
2024/02/21 00:05:40;;;;;;;16.58;3.10;;;9.80;99.90;;;;;;5048844;28;20017;-72
2024/02/21 00:08:06;;;;;;;13.80;3.53;;;9.90;99.90;;;;;;5041749;28;20560;-72
2024/02/21 00:10:32;;;;;;;12.10;3.85;;;9.80;99.90;;;;;;5039754;28;20060;-72
2024/02/21 00:13:01;;;;;;;12.30;3.17;;;9.90;99.90;;;;;;5040078;28;20036;-72
2024/02/21 00:15:27;;;;;;;15.75;4.15;;;9.90;99.90;;;;;;5041492;28;20044;-72
2024/02/21 00:17:53;;;;;;;12.25;3.03;;;9.90;99.90;;;;;;5041306;28;20021;-72
2024/02/21 00:20:20;;;;;;;12.48;3.78;;;9.80;99.90;;;;;;5039935;28;20025;-72
2024/02/21 00:22:46;;;;;;;12.00;3.08;;;9.60;99.90;;;;;;5042596;28;20120;-72
2024/02/21 00:25:12;;;;;;;17.38;3.53;;;9.30;99.90;;;;;;5042662;28;20021;-72
2024/02/21 00:27:38;;;;;;;11.63;3.33;;;9.30;99.90;;;;;;5043077;28;20053;-72
2024/02/21 00:30:05;;;;;;;16.05;3.83;;;9.30;99.90;;;;;;5045690;28;20033;-73
2024/02/21 00:32:34;;;;;;;16.65;3.70;;;9.40;99.90;;;;;;5036598;28;20029;-72
2024/02/21 00:35:01;;;;;;;13.27;3.72;;;9.40;99.90;;;;;;5040944;28;20024;-72
2024/02/21 00:37:27;;;;;;;16.38;3.53;;;9.40;99.90;;;;;;5042152;28;20759;-73
2024/02/21 00:39:54;;;;;;;13.55;3.55;;;9.50;99.90;;;;;;5045360;28;20033;-72
2024/02/21 00:42:21;;;;;;;14.30;3.80;;;9.40;99.90;;;;;;5043387;28;20041;-72
2024/02/21 00:44:47;;;;;;;29.90;3.78;;;9.30;99.90;;;;;;5042306;28;20053;-72
2024/02/21 00:47:13;;;;;;;15.30;3.47;;;9.30;99.90;;;;;;5044005;28;20025;-72
2024/02/21 00:49:39;;;;;;;12.30;3.35;;;9.30;99.90;;;;;;5046416;28;20050;-72
2024/02/21 00:52:05;;;;;;;11.88;3.17;;;9.30;99.90;;;;;;5045171;28;20056;-72
2024/02/21 00:54:31;;;;;;;12.10;3.55;;;9.30;99.90;;;;;;5049267;28;20048;-72
2024/02/21 00:56:56;;;;;;;14.50;3.33;;;9.20;99.90;;;;;;5045058;28;20029;-72
2024/02/21 00:59:22;;;;;;;11.35;3.30;;;9.10;99.90;;;;;;5044788;28;20029;-72
2024/02/21 01:01:48;;;;;;;15.93;3.28;;;9.20;99.90;;;;;;5048671;28;20111;-72
2024/02/21 01:04:14;;;;;;;9.07;3.50;;;9.20;99.90;;;;;;5047576;28;20082;-72
2024/02/21 01:06:42;;;;;;;14.63;3.35;;;9.00;99.90;;;;;;5042092;28;20662;-72
2024/02/21 01:09:08;;;;;;;9.73;2.78;;;9.00;99.90;;;;;;5034277;28;20037;-72
2024/02/21 01:11:34;;;;;;;13.48;3.15;;;9.10;99.90;;;;;;5043332;28;20035;-72
2024/02/21 01:14:00;;;;;;;15.90;4.13;;;9.10;99.90;;;;;;5045001;28;20037;-72
2024/02/21 01:16:26;;;;;;;20.05;3.58;;;8.90;99.90;;;;;;5050195;28;20041;-71
2024/02/21 01:18:52;;;;;;;11.27;3.15;;;8.90;99.90;;;;;;5040322;28;20687;-71
2024/02/21 01:21:18;;;;;;;8.77;3.78;;;9.00;99.90;;;;;;5044942;28;20028;-71
2024/02/21 01:23:44;;;;;;;17.77;3.63;;;9.00;99.90;;;;;;5042265;28;20032;-71
2024/02/21 01:26:13;;;;;;;15.40;2.95;;;8.90;99.90;;;;;;5044209;28;20079;-72
2024/02/21 01:28:40;;;;;;;12.77;3.30;;;8.90;99.90;;;;;;5050925;28;20033;-72
2024/02/21 01:31:05;;;;;;;17.38;3.85;;;8.90;99.90;;;;;;5046204;28;20127;-71
2024/02/21 01:33:34;;;;;;;19.83;3.83;;;8.90;99.90;;;;;;5043845;28;20116;-72
2024/02/21 01:36:06;;;;;;;11.05;3.20;;;9.10;99.90;;;;;;5042611;28;20032;-71
2024/02/21 01:38:32;;;;;;;14.27;3.72;;;9.10;99.90;;;;;;5044762;28;20029;-72
2024/02/21 01:40:58;;;;;;;9.82;3.35;;;9.10;99.90;;;;;;5051013;28;20032;-71
2024/02/21 01:43:24;;;;;;;15.63;3.63;;;9.10;99.90;;;;;;5049819;28;20032;-71
2024/02/21 01:45:55;;;;;;;14.40;3.78;;;9.10;99.90;;;;;;5040837;28;20111;-72
2024/02/21 01:48:22;;;;;;;12.95;3.70;;;9.00;99.90;;;;;;5042408;28;20029;-72
2024/02/21 01:50:53;;;;;;;11.45;2.95;;;8.90;99.90;;;;;;5044029;28;20025;-71
2024/02/21 01:53:30;;;;;;;13.40;3.88;;;9.00;99.90;;;;;;5042398;28;20044;-71
2024/02/21 01:55:56;;;;;;;14.70;3.15;;;9.10;99.90;;;;;;5044240;28;20037;-71
2024/02/21 01:58:22;;;;;;;13.13;3.47;;;9.20;99.90;;;;;;5045729;28;20056;-72
2024/02/21 02:00:50;;;;;;;7.65;2.55;;;9.20;99.90;;;;;;5038005;28;20037;-72
2024/02/21 02:03:18;;;;;;;20.85;3.47;;;9.30;99.90;;;;;;5051709;28;20036;-72
2024/02/21 02:05:49;;;;;;;13.85;4.00;;;9.20;99.90;;;;;;5041856;28;20392;-72
2024/02/21 02:08:16;;;;;;;13.13;3.53;;;9.10;99.90;;;;;;5045002;28;20053;-72
2024/02/21 02:10:43;;;;;;;9.02;3.13;;;9.00;99.90;;;;;;5045191;28;20033;-72
2024/02/21 02:13:09;;;;;;;12.35;3.25;;;9.10;99.90;;;;;;5045292;28;20040;-72
2024/02/21 02:15:40;;;;;;;10.63;3.30;;;9.10;99.90;;;;;;5043619;28;20037;-72
2024/02/21 02:18:06;;;;;;;10.70;3.05;;;9.20;99.90;;;;;;5042744;28;20033;-72
2024/02/21 02:20:32;;;;;;;8.88;2.53;;;9.30;99.90;;;;;;5040564;28;20056;-72
2024/02/21 02:22:59;;;;;;;12.75;3.28;;;9.40;99.90;;;;;;5046597;28;20484;-72
2024/02/21 02:25:26;;;;;;;16.23;3.40;;;9.40;99.90;;;;;;5046341;28;20570;-72
2024/02/21 02:27:53;;;;;;;13.88;3.75;;;9.40;99.90;;;;;;5042209;28;20025;-72
2024/02/21 02:30:19;;;;;;;13.50;3.10;;;9.30;99.90;;;;;;5044151;28;20037;-72
2024/02/21 02:32:48;;;;;;;12.70;3.85;;;9.30;99.90;;;;;;5043189;28;20044;-72
2024/02/21 02:35:14;;;;;;;19.83;3.50;;;9.30;99.90;;;;;;5044130;28;20029;-72
2024/02/21 02:37:40;;;;;;;10.63;3.33;;;9.30;99.90;;;;;;5038965;28;20322;-72
2024/02/21 02:40:07;;;;;;;9.48;3.50;;;9.20;99.90;;;;;;5041145;28;20044;-72
2024/02/21 02:42:33;;;;;;;9.15;2.92;;;9.20;99.90;;;;;;5043548;28;20048;-72
2024/02/21 02:44:59;;;;;;;11.30;3.67;;;9.10;99.90;;;;;;5043563;28;20056;-72
2024/02/21 02:47:25;;;;;;;11.35;3.58;;;9.10;99.90;;;;;;5046277;28;20036;-72
2024/02/21 02:49:51;;;;;;;9.13;3.75;;;9.10;99.90;;;;;;5042513;28;20488;-72
2024/02/21 02:52:18;;;;;;;17.83;4.25;;;8.90;99.90;;;;;;5041367;28;20021;-72
2024/02/21 02:54:44;;;;;;;14.70;4.22;;;8.80;99.90;;;;;;5039808;28;20819;-72
2024/02/21 02:57:10;;;;;;;15.25;3.33;;;8.80;99.90;;;;;;5043994;28;20282;-72
2024/02/21 02:59:35;;;;;;;14.45;3.95;;;8.80;99.90;;;;;;5042014;28;20565;-72
2024/02/21 03:02:01;;;;;;;12.20;3.58;;;8.80;99.90;;;;;;5038152;28;20393;-72
2024/02/21 03:04:27;;;;;;;14.75;3.97;;;8.80;99.90;;;;;;5043147;28;20456;-72
2024/02/21 03:06:53;;;;;;;14.20;4.25;;;8.70;99.90;;;;;;5042874;28;20025;-72
2024/02/21 03:09:19;;;;;;;15.98;3.78;;;8.60;99.90;;;;;;5044751;28;20032;-72
2024/02/21 03:11:45;;;;;;;14.55;3.83;;;8.60;99.90;;;;;;5037932;28;20079;-72
2024/02/21 03:14:11;;;;;;;12.63;4.60;;;8.60;99.90;;;;;;5042056;28;20048;-72
2024/02/21 03:16:37;;;;;;;24.23;4.60;;;8.50;99.90;;;;;;5041842;28;20031;-72
2024/02/21 03:19:03;;;;;;;19.98;4.90;;;8.40;99.90;;;;;;5041725;28;20060;-72
2024/02/21 03:21:29;;;;;;;12.50;3.85;;;8.50;99.90;;;;;;5042286;28;20129;-72
2024/02/21 03:23:54;;;;;;;14.13;4.20;;;8.60;99.90;;;;;;5038617;28;20108;-72
2024/02/21 03:26:20;;;;;;;14.13;4.88;;;8.50;99.90;;;;;;5042219;28;20395;-71
2024/02/21 03:28:46;;;;;;;20.58;6.53;;;8.40;99.90;;;;;;5043832;28;20033;-72
2024/02/21 03:31:13;;;;;;;14.82;4.78;;;8.20;99.90;;;;;;5041845;28;20539;-72
2024/02/21 03:33:42;;;;;;;14.00;4.03;;;8.20;99.90;;;;;;5041417;28;20459;-72
2024/02/21 03:36:14;;;;;;;13.55;5.18;;;8.20;99.90;;;;;;5066501;28;20147;-72
2024/02/21 03:38:40;;;;;;;18.60;5.43;;;8.20;99.90;;;;;;5041685;28;20037;-72
2024/02/21 03:41:06;;;;;;;18.40;5.05;;;8.30;99.90;;;;;;5041464;28;20033;-72
2024/02/21 03:43:31;;;;;;;16.83;5.60;;;8.20;99.90;;;;;;5043039;28;20055;-72
2024/02/21 03:45:57;;;;;;;22.30;4.97;;;8.10;99.90;;;;;;5039833;28;20200;-72
2024/02/21 03:48:23;;;;;;;20.77;6.53;;;8.10;99.90;;;;;;5040025;28;20462;-72
2024/02/21 03:50:50;;;;;;;16.95;5.38;;;8.00;99.90;;;;;;5041931;28;20511;-72
2024/02/21 03:53:16;;;;;;;17.30;4.97;;;7.90;99.90;;;;;;5044010;28;20541;-72
2024/02/21 03:55:41;;;;;;;18.55;5.78;;;7.80;99.90;;;;;;5043646;28;20040;-72
2024/02/21 03:58:07;;;;;;;25.77;5.80;;;7.90;99.90;;;;;;5040035;28;20060;-72
2024/02/21 04:00:33;;;;;;;19.20;4.93;;;8.00;99.90;;;;;;5040935;28;20033;-72
2024/02/21 04:02:59;;;;;;;15.68;5.05;;;8.10;99.90;;;;;;5041929;28;20032;-72
2024/02/21 04:05:25;;;;;;;17.13;5.57;;;8.00;99.90;;;;;;5043084;28;20029;-72
2024/02/21 04:07:51;;;;;;;17.60;5.43;;;8.10;99.90;;;;;;5040671;28;20421;-72
2024/02/21 04:10:17;;;;;;;14.10;5.10;;;8.00;99.90;;;;;;5040855;28;20089;-73
2024/02/21 04:12:43;;;;;;;20.00;4.90;;;7.90;99.90;;;;;;5041039;28;20036;-72
2024/02/21 04:15:09;;;;;;;15.48;5.55;;;7.90;99.90;;;;;;5046675;28;20029;-72
2024/02/21 04:17:36;;;;;;;16.65;4.95;;;7.80;99.90;;;;;;5048101;28;20154;-72
2024/02/21 04:20:07;;;;;;;25.33;6.00;;;7.80;99.90;;;;;;5043886;28;20033;-72
2024/02/21 04:22:34;;;;;;;24.77;5.93;;;7.90;99.90;;;;;;5043800;28;20543;-72
2024/02/21 04:25:00;;;;;;;23.70;5.60;;;7.90;99.90;;;;;;5048184;28;20029;-72
2024/02/21 04:27:26;;;;;;;16.75;5.50;;;7.90;99.90;;;;;;5046078;28;20047;-72
2024/02/21 04:29:53;;;;;;;16.05;4.50;;;8.00;99.90;;;;;;5046002;28;20552;-72
2024/02/21 04:32:19;;;;;;;17.70;5.03;;;8.20;99.90;;;;;;5041284;28;20021;-72
2024/02/21 04:34:45;;;;;;;12.57;5.22;;;8.20;99.90;;;;;;5039828;28;20503;-72
2024/02/21 04:37:10;;;;;;;16.17;5.32;;;8.30;99.90;;;;;;5052148;28;20036;-72
2024/02/21 04:39:36;;;;;;;12.73;4.97;;;8.30;99.90;;;;;;5049943;28;20033;-72
2024/02/21 04:42:02;;;;;;;22.25;5.88;;;8.30;99.90;;;;;;5046795;28;20021;-72
2024/02/21 04:44:28;;;;;;;18.38;5.05;;;8.20;99.90;;;;;;5041084;28;20494;-72
2024/02/21 04:46:54;;;;;;;15.48;5.18;;;8.00;99.90;;;;;;5043562;28;20472;-72
2024/02/21 04:49:20;;;;;;;17.25;5.28;;;8.00;99.90;;;;;;5043307;28;20481;-72
2024/02/21 04:51:45;;;;;;;14.07;6.22;;;8.00;99.90;;;;;;5043450;28;20587;-72
2024/02/21 04:54:11;;;;;;;13.98;6.20;;;8.10;99.90;;;;;;5047643;28;20087;-72
2024/02/21 04:56:37;;;;;;;11.68;4.90;;;8.10;99.90;;;;;;5044940;28;20111;-72
2024/02/21 04:59:03;;;;;;;22.23;5.82;;;8.30;99.90;;;;;;5043832;28;20472;-72
2024/02/21 05:01:29;;;;;;;14.88;5.10;;;8.30;99.90;;;;;;5042746;28;20033;-72
2024/02/21 05:03:55;;;;;;;19.80;5.32;;;8.30;99.90;;;;;;5046063;28;20036;-72
2024/02/21 05:06:21;;;;;;;11.18;5.93;;;8.30;99.90;;;;;;5044037;28;20025;-72
2024/02/21 05:08:47;;;;;;;17.10;5.55;;;8.20;99.90;;;;;;5045199;28;20777;-72
2024/02/21 05:11:13;;;;;;;17.25;5.80;;;8.30;99.90;;;;;;5044705;28;20048;-72
2024/02/21 05:13:39;;;;;;;22.48;5.90;;;8.30;99.90;;;;;;5043548;28;20516;-72
2024/02/21 05:16:06;;;;;;;18.10;6.10;;;8.20;99.90;;;;;;5043960;28;20041;-72
2024/02/21 05:18:33;;;;;;;21.98;5.57;;;8.30;99.90;;;;;;5041859;28;20749;-72
2024/02/21 05:20:59;;;;;;;13.48;5.55;;;8.20;99.90;;;;;;5046831;28;20036;-72
2024/02/21 05:23:25;;;;;;;22.20;5.05;;;8.30;99.90;;;;;;5044513;28;20039;-72
2024/02/21 05:25:51;;;;;;;18.95;5.60;;;8.30;99.90;;;;;;5044660;28;20028;-72
2024/02/21 05:28:17;;;;;;;15.18;5.72;;;8.30;99.90;;;;;;5044479;28;20104;-72
2024/02/21 05:30:43;;;;;;;27.58;6.53;;;8.30;99.90;;;;;;5042221;28;20119;-72
2024/02/21 05:33:09;;;;;;;18.85;6.43;;;8.40;99.90;;;;;;5041236;28;20148;-72
2024/02/21 05:35:35;;;;;;;19.98;6.57;;;8.40;99.90;;;;;;5044805;28;20492;-72
2024/02/21 05:38:05;;;;;;;13.05;5.40;;;8.30;99.90;;;;;;5045170;28;20025;-72
2024/02/21 05:40:31;;;;;;;14.77;6.10;;;8.40;99.90;;;;;;5047739;28;20178;-71
2024/02/21 05:42:57;;;;;;;15.07;6.20;;;8.40;99.90;;;;;;5045210;28;20130;-72
2024/02/21 05:45:23;;;;;;;15.57;6.82;;;8.30;99.90;;;;;;5042901;28;20040;-71
2024/02/21 05:47:49;;;;;;;20.42;6.07;;;8.20;99.90;;;;;;5043120;28;20029;-71
2024/02/21 05:50:15;;;;;;;22.60;7.30;;;8.20;99.90;;;;;;5046572;28;20120;-71
2024/02/21 05:52:41;;;;;;;18.40;5.97;;;8.20;99.90;;;;;;5044814;28;21911;-72
2024/02/21 05:55:08;;;;;;;16.48;6.22;;;8.20;99.90;;;;;;5041302;28;20039;-72
2024/02/21 05:57:34;;;;;;;18.23;6.13;;;8.30;99.90;;;;;;5043059;28;20444;-72
2024/02/21 06:00:02;;;;;;;16.17;5.70;;;8.30;99.90;;;;;;5046443;28;20032;-72
2024/02/21 06:02:38;;;;;;;22.95;6.97;;;8.20;99.90;;;;;;5044503;28;20033;-72
2024/02/21 06:05:07;;;;;;;16.08;5.57;;;8.30;99.90;;;;;;5045102;28;20036;-72
2024/02/21 06:07:33;;;;;;;19.75;6.15;;;8.20;99.90;;;;;;5045566;28;20179;-72
2024/02/21 06:10:03;;;;;;;17.13;6.40;;;8.30;99.90;;;;;;5042291;28;20025;-72
2024/02/21 06:12:29;;;;;;;19.85;6.32;;;8.40;99.90;;;;;;5043635;28;20025;-72
2024/02/21 06:14:54;;;;;;;16.20;6.30;;;8.40;99.90;;;;;;5043576;28;20805;-72
2024/02/21 06:17:20;;;;;;;22.58;6.53;;;8.50;99.90;;;;;;5046958;28;20052;-72
2024/02/21 06:19:46;;;;;;;18.55;6.45;;;8.50;99.90;;;;;;5039415;28;20500;-72
2024/02/21 06:22:12;;;;;;;17.15;6.00;;;8.50;99.90;;;;;;5043222;28;20053;-72
2024/02/21 06:24:38;;;;;;;23.73;6.10;;;8.60;99.90;;;;;;5041528;28;20459;-72
2024/02/21 06:27:07;;;;;;;16.50;5.88;;;8.60;99.90;;;;;;5047023;28;20080;-71
2024/02/21 06:29:34;;;;;;;16.70;6.10;;;8.50;99.90;;;;;;5038886;28;20071;-72
2024/02/21 06:32:00;;;;;;;23.02;6.80;;;8.50;99.90;;;;;;5038961;28;20584;-72
2024/02/21 06:34:26;;;;;;;24.25;6.82;;;8.50;99.90;;;;;;5043350;28;20036;-72
2024/02/21 06:36:52;;;;;;;20.48;6.93;;;8.50;99.90;;;;;;5043599;28;20032;-72
2024/02/21 06:39:18;;;;;;;14.65;6.28;;;8.30;99.90;;;;;;5038226;28;20028;-72
2024/02/21 06:41:44;;;;;;;20.15;7.03;;;8.20;99.90;;;;;;5046536;28;20347;-72
2024/02/21 06:44:09;;;;;;;16.52;6.32;;;8.10;99.90;;;;;;5043245;28;20106;-72
2024/02/21 06:46:35;;;;;;;16.33;6.32;;;8.10;99.90;;;;;;5040707;28;20033;-72
2024/02/21 06:49:05;;;;;;;19.75;6.20;;;8.20;99.90;;;;;;5041456;28;20025;-72
2024/02/21 06:51:31;;;;;;;13.85;5.97;;;8.20;99.90;;;;;;5046140;28;20036;-72
2024/02/21 06:53:57;;;;;;;18.23;6.63;;;8.20;99.90;;;;;;5040059;28;20621;-72
2024/02/21 06:56:28;;;;;;;16.05;6.05;;;8.20;99.90;;;;;;5042378;28;20037;-72
2024/02/21 06:58:55;;;;;;;16.23;6.38;;;8.20;99.90;;;;;;5044036;28;20033;-72
2024/02/21 07:01:21;;;;;;;19.23;5.63;;;8.40;99.90;;;;;;5039984;28;20037;-72
2024/02/21 07:03:47;;;;;;;15.20;5.93;;;8.40;99.90;;;;;;5044892;28;20029;-72
2024/02/21 07:06:13;;;;;;;13.02;6.20;;;8.40;99.90;;;;;;5044543;28;20568;-72
2024/02/21 07:08:39;;;;;;;13.15;5.55;;;8.40;99.90;;;;;;5046386;28;20020;-72
2024/02/21 07:11:06;;;;;;;12.15;5.10;;;8.40;99.90;;;;;;5042019;28;20035;-72
2024/02/21 07:13:33;;;;;;;20.27;5.93;;;8.40;99.90;;;;;;5045160;28;20029;-72
2024/02/21 07:15:59;;;;;;;14.10;5.97;;;8.50;99.90;;;;;;5043656;28;20528;-72
2024/02/21 07:18:27;;;;;;;16.02;5.43;;;8.50;99.90;;;;;;5040033;28;20040;-72
2024/02/21 07:20:53;;;;;;;13.57;6.10;;;8.50;99.90;;;;;;5046863;28;20435;-72
2024/02/21 07:23:19;;;;;;;26.05;6.95;;;8.40;99.90;;;;;;5045790;28;20033;-72
2024/02/21 07:25:45;;;;;;;21.13;7.88;;;8.40;99.90;;;;;;5046460;28;20214;-71
2024/02/21 07:28:13;;;;;;;17.70;5.78;;;8.40;99.90;;;;;;5017866;28;20024;-72
2024/02/21 07:30:39;;;;;;;21.95;7.65;;;8.30;99.90;;;;;;5042091;28;20503;-72
2024/02/21 07:33:07;;;;;;;14.55;5.13;;;8.30;99.90;;;;;;5041083;28;20029;-73
2024/02/21 07:35:33;;;;;;;19.92;7.38;;;8.30;99.90;;;;;;5041868;28;20127;-72
2024/02/21 07:37:59;;;;;;;19.10;6.75;;;8.20;99.90;;;;;;5044710;28;20107;-72
2024/02/21 07:40:25;;;;;;;19.27;5.03;;;8.20;99.90;;;;;;5043572;28;20047;-67
2024/02/21 07:42:50;;;;;;;15.52;6.40;;;8.20;99.90;;;;;;5040061;28;20059;-71
2024/02/21 07:45:18;;;;;;;16.63;6.28;;;8.20;99.90;;;;;;5041364;28;20472;-72
2024/02/21 07:47:44;;;;;;;20.85;9.05;;;8.30;99.90;;;;;;5040018;28;20013;-72
2024/02/21 07:50:10;;;;;;;16.55;6.88;;;8.30;99.90;;;;;;5043710;28;20040;-72
2024/02/21 07:52:36;;;;;;;18.35;5.70;;;8.20;99.90;;;;;;5038836;28;20037;-72
2024/02/21 07:55:02;;;;;;;18.10;6.03;;;8.20;99.90;;;;;;5040397;28;20033;-72
2024/02/21 07:57:28;;;;;;;29.02;15.55;;;8.30;99.90;;;;;;5039458;28;20104;-71
2024/02/21 07:59:54;;;;;;;16.35;6.43;;;8.30;99.90;;;;;;5043629;28;20137;-71
2024/02/21 08:02:20;;;;;;;20.25;6.25;;;8.40;99.90;;;;;;5041202;28;20500;-72
2024/02/21 08:04:46;;;;;;;14.07;5.22;;;8.40;99.90;;;;;;5039571;28;20040;-72
2024/02/21 08:07:12;;;;;;;18.25;5.70;;;8.50;99.90;;;;;;5042420;28;20025;-72
2024/02/21 08:09:40;;;;;;;12.85;5.55;;;8.60;99.90;;;;;;5043221;28;20033;-71
2024/02/21 08:12:06;;;;;;;13.35;5.18;;;8.50;99.90;;;;;;5042682;28;20033;-71
2024/02/21 08:14:32;;;;;;;16.55;6.18;;;8.70;99.90;;;;;;5041003;28;20037;-72
2024/02/21 08:16:59;;;;;;;13.13;5.25;;;8.80;99.90;;;;;;5043207;28;20033;-72
2024/02/21 08:19:25;;;;;;;13.80;6.35;;;8.90;99.90;;;;;;5048826;28;20052;-71
2024/02/21 08:21:51;;;;;;;16.85;6.15;;;9.00;99.90;;;;;;5057866;28;20025;-71
2024/02/21 08:24:17;;;;;;;16.20;5.68;;;8.90;99.90;;;;;;5059143;28;20089;-71
2024/02/21 08:26:44;;;;;;;19.05;5.60;;;9.10;99.90;;;;;;5068704;28;20070;-71
2024/02/21 08:29:11;;;;;;;21.05;6.82;;;9.20;99.90;;;;;;5054541;28;20138;-72
2024/02/21 08:31:37;;;;;;;17.63;6.88;;;9.40;99.90;;;;;;5055335;28;20036;-71
2024/02/21 08:34:03;;;;;;;19.27;6.43;;;9.40;99.90;;;;;;5052885;28;20040;-72
2024/02/21 08:36:30;;;;;;;24.38;8.85;;;9.40;99.90;;;;;;5057222;28;20112;-71
2024/02/21 08:38:56;;;;;;;17.05;7.47;;;9.60;99.90;;;;;;5049477;28;20331;-71
2024/02/21 08:41:26;;;;;;;20.42;7.50;;;9.70;99.90;;;;;;5057157;28;20064;-71
2024/02/21 08:43:53;;;;;;;23.00;11.15;;;9.90;99.90;;;;;;5054828;28;20048;-72
2024/02/21 08:46:24;;;;;;;42.75;22.85;;;10.00;99.90;;;;;;5057407;28;20025;-73
2024/02/21 08:48:53;;;;;;;27.45;18.70;;;10.20;99.90;;;;;;5053400;28;20025;-73
2024/02/21 08:51:19;;;;;;;20.92;12.38;;;10.30;99.90;;;;;;5054923;28;20448;-72
2024/02/21 08:53:46;;;;;;;34.35;22.80;;;10.10;99.90;;;;;;5056350;28;20024;-72
2024/02/21 08:56:12;;;;;;;24.95;14.23;;;10.10;99.90;;;;;;5054914;28;20033;-72
2024/02/21 08:58:40;;;;;;;36.92;19.50;;;10.10;99.90;;;;;;5054756;28;20027;-73
2024/02/21 09:01:09;;;;;;;16.95;11.02;;;10.20;99.90;;;;;;5055155;28;20092;-73
2024/02/21 09:03:38;;;;;;;23.00;10.63;;;10.20;99.90;;;;;;5060509;28;20059;-73
2024/02/21 09:06:09;;;;;;;19.63;9.00;;;10.40;99.90;;;;;;5062105;28;20491;-73
2024/02/21 09:08:35;;;;;;;18.42;7.45;;;10.60;99.90;;;;;;5058490;28;20112;-73
2024/02/21 09:11:01;;;;;;;16.85;8.57;;;10.70;99.90;;;;;;5057255;28;20093;-72
2024/02/21 09:13:27;;;;;;;13.65;7.03;;;10.70;99.90;;;;;;5056185;28;20029;-73
2024/02/21 09:15:53;;;;;;;17.63;6.45;;;10.60;99.90;;;;;;5061007;28;20087;-73
2024/02/21 09:18:19;;;;;;;18.35;7.03;;;10.70;99.90;;;;;;5059534;28;20025;-73
2024/02/21 09:20:45;;;;;;;22.20;9.38;;;10.70;99.90;;;;;;5055561;28;20032;-73
2024/02/21 09:23:12;;;;;;;18.90;8.85;;;10.60;99.90;;;;;;5058079;28;20032;-74
2024/02/21 09:25:38;;;;;;;15.80;6.72;;;10.70;99.90;;;;;;5055829;28;20769;-73
2024/02/21 09:28:06;;;;;;;13.82;6.78;;;10.70;99.90;;;;;;5060388;28;20169;-74
2024/02/21 09:30:32;;;;;;;19.35;7.30;;;10.90;99.90;;;;;;5081083;28;20041;-73
2024/02/21 09:32:59;;;;;;;17.60;6.78;;;11.10;99.90;;;;;;5060083;28;20036;-73
2024/02/21 09:35:27;;;;;;;11.55;5.85;;;11.00;99.90;;;;;;5057349;28;20148;-73
2024/02/21 09:37:53;;;;;;;18.70;6.70;;;11.10;99.90;;;;;;5057817;28;20174;-74
2024/02/21 09:40:20;;;;;;;15.52;6.60;;;11.30;99.90;;;;;;5059527;28;20591;-74
2024/02/21 09:42:47;;;;;;;20.63;7.13;;;11.40;99.90;;;;;;5056616;28;20039;-74
2024/02/21 09:45:21;;;;;;;13.77;6.95;;;11.10;99.90;;;;;;5060376;28;20160;-73
2024/02/21 09:48:31;;;;;;;16.27;6.97;;;11.20;99.90;;;;;;5052504;28;20116;-73
2024/02/21 09:50:58;;;;;;;14.73;6.97;;;11.30;99.90;;;;;;5060562;28;20063;-74
2024/02/21 09:53:25;;;;;;;22.73;10.27;;;11.30;99.90;;;;;;5056244;28;20044;-74
2024/02/21 09:55:52;;;;;;;14.90;7.60;;;11.40;99.90;;;;;;5059485;28;20036;-73
2024/02/21 09:58:18;;;;;;;25.85;11.15;;;11.40;99.90;;;;;;5054558;28;20029;-68
2024/02/21 10:00:44;;;;;;;22.77;10.65;;;11.60;99.90;;;;;;5058069;28;20076;-68
2024/02/21 10:03:10;;;;;;;29.05;12.80;;;11.60;99.90;;;;;;5057333;28;20559;-72
2024/02/21 10:05:37;;;;;;;15.65;6.70;;;11.60;99.90;;;;;;5059046;28;20040;-67
2024/02/21 10:08:06;;;;;;;29.85;12.55;;;11.40;99.90;;;;;;5056991;28;20040;-68
2024/02/21 10:10:45;;;;;;;16.38;7.25;;;11.30;99.90;;;;;;5051257;28;20429;-68
2024/02/21 10:13:24;;;;;;;20.48;8.43;;;11.40;99.90;;;;;;5057900;28;20845;-68
2024/02/21 10:16:04;;;;;;;13.43;7.13;;;11.40;99.90;;;;;;5056546;28;20530;-67
2024/02/21 10:18:30;;;;;;;11.02;6.30;;;11.50;99.90;;;;;;5057432;28;20037;-70
2024/02/21 10:21:06;;;;;;;16.38;7.72;;;11.60;99.90;;;;;;5054778;28;20035;-67
2024/02/21 10:23:51;;;;;;;14.52;7.15;;;11.70;99.90;;;;;;5056528;28;20036;-67
2024/02/21 10:26:21;;;;;;;12.40;6.63;;;11.70;99.90;;;;;;5057195;28;20094;-67
2024/02/21 10:28:51;;;;;;;10.57;5.95;;;11.70;99.90;;;;;;5057563;28;20560;-66
2024/02/21 10:31:28;;;;;;;10.43;5.65;;;11.70;99.90;;;;;;5057413;28;20032;-66
2024/02/21 10:34:03;;;;;;;14.75;5.32;;;11.80;99.90;;;;;;5056439;28;20032;-67
2024/02/21 10:36:29;;;;;;;9.50;5.05;;;11.80;99.90;;;;;;5059495;28;20036;-67
2024/02/21 10:38:56;;;;;;;12.77;6.65;;;12.00;99.90;;;;;;5054306;28;20440;-68
2024/02/21 10:41:23;;;;;;;16.00;8.05;;;12.10;99.90;;;;;;5058902;28;20037;-67
2024/02/21 10:43:54;;;;;;;14.02;6.30;;;11.90;99.90;;;;;;5054164;28;20020;-67
2024/02/21 10:46:21;;;;;;;11.23;5.45;;;12.00;99.90;;;;;;5055094;28;20041;-67
2024/02/21 10:48:52;;;;;;;9.57;5.32;;;12.10;99.90;;;;;;5059064;28;20077;-68
2024/02/21 10:51:20;;;;;;;11.43;6.15;;;12.40;99.90;;;;;;5056849;28;20032;-68
2024/02/21 10:53:59;;;;;;;18.15;7.35;;;12.40;99.90;;;;;;5056867;28;20036;-68
2024/02/21 10:56:31;;;;;;;18.17;8.05;;;12.50;99.90;;;;;;5055981;28;20036;-67
2024/02/21 10:59:01;;;;;;;15.32;6.13;;;12.40;99.90;;;;;;5061356;28;20048;-66
2024/02/21 11:01:29;;;;;;;11.48;6.22;;;12.50;99.90;;;;;;5056602;28;20496;-67
2024/02/21 11:03:57;;;;;;;15.93;5.25;;;12.80;99.90;;;;;;5056256;28;20328;-68
2024/02/21 11:06:24;;;;;;;13.23;5.13;;;13.10;99.90;;;;;;5050401;28;20032;-69
2024/02/21 11:09:08;;;;;;;10.43;5.65;;;13.40;99.90;;;;;;5060052;28;20029;-67
2024/02/21 11:11:44;;;;;;;17.60;6.65;;;13.50;99.90;;;;;;5057126;28;20058;-68
2024/02/21 11:14:17;;;;;;;18.60;7.55;;;13.70;99.90;;;;;;5054901;28;20095;-68
2024/02/21 11:16:43;;;;;;;14.25;7.03;;;13.80;99.90;;;;;;5054606;28;20033;-69
2024/02/21 11:19:19;;;;;;;15.23;5.88;;;13.70;99.90;;;;;;5054926;28;20185;-66
2024/02/21 11:21:45;;;;;;;11.55;5.03;;;13.40;99.90;;;;;;5059919;28;20662;-66
2024/02/21 11:24:11;;;;;;;15.95;6.57;;;13.10;99.90;;;;;;5055744;28;20032;-67
2024/02/21 11:26:38;;;;;;;8.23;4.38;;;12.90;99.90;;;;;;5056478;28;20110;-67
2024/02/21 11:29:04;;;;;;;9.68;4.57;;;13.10;99.90;;;;;;5056109;28;20035;-67
2024/02/21 11:31:45;;;;;;;11.45;4.50;;;13.60;99.90;;;;;;5056918;28;20036;-67
2024/02/21 11:34:18;;;;;;;12.48;5.82;;;14.10;99.90;;;;;;5056647;28;20044;-67
2024/02/21 11:36:51;;;;;;;9.93;4.10;;;14.30;99.90;;;;;;5056309;28;20060;-67
2024/02/21 11:39:25;;;;;;;9.30;4.15;;;14.10;99.90;;;;;;5056996;28;20558;-67
2024/02/21 11:42:20;;;;;;;6.63;3.83;;;14.20;99.90;;;;;;5055112;28;20704;-68
2024/02/21 11:44:47;;;;;;;9.27;4.40;;;14.50;99.90;;;;;;5047166;28;20045;-67
2024/02/21 11:47:14;;;;;;;7.80;3.83;;;14.70;99.90;;;;;;5055732;28;20029;-67
2024/02/21 11:49:49;;;;;;;7.75;4.47;;;14.80;99.90;;;;;;5057791;28;20053;-67
2024/02/21 11:52:18;;;;;;;10.25;4.72;;;14.70;99.90;;;;;;5053780;28;20036;-66
2024/02/21 11:54:44;;;;;;;7.03;4.60;;;14.50;99.90;;;;;;5036866;28;20063;-66
2024/02/21 11:57:11;;;;;;;10.90;4.55;;;14.70;99.90;;;;;;5026200;28;20033;-67
2024/02/21 11:59:39;;;;;;;7.72;4.47;;;14.90;99.90;;;;;;5022193;28;20055;-67
2024/02/21 12:02:05;;;;;;;8.23;4.07;;;14.90;99.90;;;;;;5021744;28;20025;-67
2024/02/21 12:04:31;;;;;;;8.73;3.40;;;14.70;99.90;;;;;;5028400;28;20030;-66
2024/02/21 12:06:58;;;;;;;10.98;5.28;;;14.60;99.90;;;;;;5023546;28;20104;-68
2024/02/21 12:09:25;;;;;;;11.23;4.40;;;14.30;99.90;;;;;;5022209;28;20025;-68
2024/02/21 12:11:58;;;;;;;6.47;4.15;;;14.10;99.90;;;;;;5023666;28;20044;-68
2024/02/21 12:14:25;;;;;;;5.38;3.35;;;14.10;99.90;;;;;;5023527;28;20117;-67
2024/02/21 12:16:51;;;;;;;9.82;3.88;;;14.20;99.90;;;;;;5022055;28;20116;-67
2024/02/21 12:19:17;;;;;;;9.05;3.20;;;14.10;99.90;;;;;;5019266;28;20552;-70
2024/02/21 12:21:44;;;;;;;10.63;3.03;;;14.20;99.90;;;;;;5021022;28;20040;-68
2024/02/21 12:24:15;;;;;;;7.00;3.50;;;14.30;99.90;;;;;;5024698;28;20029;-68
2024/02/21 12:26:41;;;;;;;11.13;3.03;;;14.20;99.90;;;;;;5017933;28;20041;-68
2024/02/21 12:29:10;;;;;;;7.70;3.00;;;14.30;99.90;;;;;;5023752;28;20120;-68
2024/02/21 12:31:38;;;;;;;13.80;3.17;;;14.30;99.90;;;;;;5021806;28;20040;-67
2024/02/21 12:34:04;;;;;;;7.63;3.30;;;13.80;99.90;;;;;;5023482;28;20059;-67
2024/02/21 12:36:32;;;;;;;9.50;3.60;;;13.50;99.90;;;;;;5024142;28;20034;-68
2024/02/21 12:38:58;;;;;;;6.70;3.40;;;13.50;99.90;;;;;;5025050;28;20111;-68
2024/02/21 12:41:26;;;;;;;10.43;3.65;;;13.70;99.90;;;;;;5028014;28;20029;-68
2024/02/21 12:43:53;;;;;;;9.40;3.80;;;13.70;99.90;;;;;;5027644;28;20031;-67
2024/02/21 12:46:22;;;;;;;7.70;3.13;;;13.70;99.90;;;;;;5028381;28;20035;-67